createdAt,value
2022-09-07T00:00:44.628Z,99491.06
2022-09-07T00:03:11.703Z,99491.34
2022-09-07T00:05:43.426Z,99498.97
2022-09-07T00:08:10.807Z,99498.44
2022-09-07T00:10:38.054Z,99504.44
2022-09-07T00:13:06.317Z,99500.09
2022-09-07T00:15:34.003Z,99504.75
2022-09-07T00:18:00.882Z,99511.28
2022-09-07T00:20:27.813Z,99507.47
2022-09-07T00:22:54.682Z,99503.41
2022-09-07T00:25:21.570Z,99505.59
2022-09-07T00:27:48.455Z,99498.00
2022-09-07T00:30:15.397Z,99500.19
2022-09-07T00:32:42.437Z,99493.66
2022-09-07T00:35:09.619Z,99493.16
2022-09-07T00:37:36.499Z,99489.88
2022-09-07T00:40:04.208Z,99483.38
2022-09-07T00:42:31.280Z,99470.88
2022-09-07T00:45:18.492Z,99467.59
2022-09-07T00:48:08.925Z,99463.81
2022-09-07T00:50:46.199Z,99459.75
2022-09-07T00:53:22.059Z,99451.88
2022-09-07T00:55:50.898Z,99447.53
2022-09-07T00:58:19.480Z,99432.56
2022-09-07T01:00:47.935Z,99431.19
2022-09-07T01:03:18.962Z,99425.75
2022-09-07T01:05:51.029Z,99429.06
2022-09-07T01:08:18.234Z,99435.03
2022-09-07T01:10:46.772Z,99442.13
2022-09-07T01:13:15.082Z,99441.63
2022-09-07T01:16:10.801Z,99454.66
2022-09-07T01:19:02.186Z,99467.19
2022-09-07T01:21:59.992Z,99484.03
2022-09-07T01:25:09.237Z,99493.84
2022-09-07T01:27:44.057Z,99482.97
2022-09-07T01:30:23.137Z,99493.84
2022-09-07T01:33:27.714Z,99502.00
2022-09-07T01:36:20.166Z,99498.72
2022-09-07T01:38:52.438Z,99496.03
2022-09-07T01:41:27.788Z,99499.03
2022-09-07T01:44:00.450Z,99508.00
2022-09-07T01:46:35.288Z,99536.25
2022-09-07T01:49:14.418Z,99552.56
2022-09-07T01:51:45.223Z,99558.81
2022-09-07T01:54:21.385Z,99563.72
2022-09-07T01:56:50.130Z,99566.16
2022-09-07T01:59:30.011Z,99549.84
2022-09-07T02:02:04.081Z,99555.28
2022-09-07T02:04:35.799Z,99552.84
2022-09-07T02:07:20.295Z,99559.09
2022-09-07T02:10:01.843Z,99561.25
2022-09-07T02:12:41.060Z,99552.00
2022-09-07T02:15:22.764Z,99557.72
2022-09-07T02:17:52.362Z,99564.53
2022-09-07T02:20:26.844Z,99561.25
2022-09-07T02:22:58.137Z,99558.00
2022-09-07T02:25:29.164Z,99545.78
2022-09-07T02:28:07.652Z,99554.25
2022-09-07T02:30:34.870Z,99554.50
2022-09-07T02:33:01.842Z,99546.88
2022-09-07T02:35:28.818Z,99533.84
2022-09-07T02:37:56.359Z,99552.28
2022-09-07T02:40:23.254Z,99547.69
2022-09-07T02:42:50.512Z,99527.88
2022-09-07T02:45:17.561Z,99522.69
2022-09-07T02:48:11.424Z,99512.91
2022-09-07T02:50:58.624Z,99492.25
2022-09-07T02:53:52.395Z,99485.19
2022-09-07T02:56:43.867Z,99487.94
2022-09-07T02:59:32.376Z,99500.19
2022-09-07T03:02:06.945Z,99510.22
2022-09-07T03:04:42.878Z,99506.94
2022-09-07T03:07:23.059Z,99501.47
2022-09-07T03:09:53.239Z,99485.75
2022-09-07T03:12:20.201Z,99492.56
2022-09-07T03:14:47.078Z,99494.41
2022-09-07T03:17:14.225Z,99481.34
2022-09-07T03:19:41.188Z,99480.81
2022-09-07T03:22:08.239Z,99482.41
2022-09-07T03:24:36.642Z,99492.66
2022-09-07T03:27:03.734Z,99493.72
2022-09-07T03:29:30.886Z,99487.19
2022-09-07T03:31:57.766Z,99479.31
2022-09-07T03:34:24.767Z,99481.44
2022-09-07T03:36:51.635Z,99486.03
2022-09-07T03:39:20.899Z,99481.66
2022-09-07T03:41:48.004Z,99478.94
2022-09-07T03:44:14.911Z,99478.94
2022-09-07T03:46:41.874Z,99481.88
2022-09-07T03:49:08.799Z,99481.56
2022-09-07T03:51:35.679Z,99493.47
2022-09-07T03:54:02.656Z,99492.88
2022-09-07T03:56:29.557Z,99516.13
2022-09-07T03:58:56.518Z,99526.94
2022-09-07T04:01:25.058Z,99526.34
2022-09-07T04:03:52.690Z,99520.94
2022-09-07T04:06:19.952Z,99515.47
2022-09-07T04:08:46.908Z,99513.25
2022-09-07T04:11:16.875Z,99508.38
2022-09-07T04:13:44.411Z,99510.28
2022-09-07T04:16:14.009Z,99507.81
2022-09-07T04:18:41.691Z,99510.53
2022-09-07T04:21:08.913Z,99520.56
2022-09-07T04:23:38.800Z,99515.63
2022-09-07T04:26:05.839Z,99515.63
2022-09-07T04:28:32.744Z,99522.94
2022-09-07T04:31:01.965Z,99511.56
2022-09-07T04:33:32.389Z,99505.34
2022-09-07T04:36:00.961Z,99506.16
2022-09-07T04:38:28.749Z,99507.47
2022-09-07T04:41:02.966Z,99505.56
2022-09-07T04:43:29.997Z,99505.56
2022-09-07T04:45:57.129Z,99505.03
2022-09-07T04:48:24.167Z,99503.94
2022-09-07T04:50:52.061Z,99508.28
2022-09-07T04:53:19.731Z,99513.47
2022-09-07T04:55:46.649Z,99516.72
2022-09-07T04:58:13.596Z,99531.06
2022-09-07T05:00:40.555Z,99530.03
2022-09-07T05:03:07.467Z,99524.63
2022-09-07T05:05:37.199Z,99529.72
2022-09-07T05:08:04.121Z,99535.34
2022-09-07T05:10:31.014Z,99536.44
2022-09-07T05:12:58.011Z,99528.03
2022-09-07T05:15:24.948Z,99531.56
2022-09-07T05:17:51.837Z,99534.53
2022-09-07T05:20:20.433Z,99531.81
2022-09-07T05:22:47.746Z,99541.84
2022-09-07T05:25:14.875Z,99543.47
2022-09-07T05:27:42.325Z,99538.88
2022-09-07T05:32:56.789Z,99540.19
2022-09-07T05:36:01.895Z,99551.28
2022-09-07T05:38:30.194Z,99552.09
2022-09-07T05:40:59.361Z,99546.13
2022-09-07T05:43:26.365Z,99549.63
2022-09-07T05:45:56.446Z,99553.16
2022-09-07T05:48:23.515Z,99561.03
2022-09-07T05:50:52.731Z,99553.72
2022-09-07T05:53:21.009Z,99563.50
2022-09-07T05:55:50.314Z,99563.50
2022-09-07T05:58:18.503Z,99572.16
2022-09-07T06:00:46.004Z,99570.28
2022-09-07T06:03:13.082Z,99583.53
2022-09-07T06:05:40.117Z,99572.44
2022-09-07T06:08:07.097Z,99580.34
2022-09-07T06:10:44.711Z,99576.56
2022-09-07T06:13:11.991Z,99579.28
2022-09-07T06:15:39.043Z,99580.41
2022-09-07T06:18:06.351Z,99584.25
2022-09-07T06:20:33.300Z,99584.53
2022-09-07T06:23:00.263Z,99588.09
2022-09-07T06:25:27.280Z,99585.72
2022-09-07T06:27:54.251Z,99576.81
2022-09-07T06:30:22.240Z,99579.53
2022-09-07T06:32:49.209Z,99588.53
2022-09-07T06:35:16.307Z,99583.44
2022-09-07T06:37:43.670Z,99583.19
2022-09-07T06:40:11.603Z,99581.34
2022-09-07T06:42:39.149Z,99583.31
2022-09-07T06:45:06.779Z,99599.09
2022-09-07T06:47:33.752Z,99596.69
2022-09-07T06:50:01.342Z,99596.47
2022-09-07T06:52:29.025Z,99600.56
2022-09-07T06:57:27.998Z,99599.53
2022-09-07T06:59:55.098Z,99599.56
2022-09-07T07:02:22.103Z,99592.03
2022-09-07T07:04:50.155Z,99598.03
2022-09-07T07:07:17.118Z,99593.19
2022-09-07T07:09:44.082Z,99594.56
2022-09-07T07:12:11.428Z,99594.84
2022-09-07T07:14:44.049Z,99593.25
2022-09-07T07:17:11.938Z,99594.34
2022-09-07T07:19:38.930Z,99591.66
2022-09-07T07:22:18.790Z,99592.75
2022-09-07T07:24:52.895Z,99594.38
2022-09-07T07:27:21.471Z,99597.94
2022-09-07T07:29:48.520Z,99593.88
2022-09-07T07:32:15.787Z,99590.38
2022-09-07T07:34:42.715Z,99600.69
2022-09-07T07:37:09.623Z,99593.34
2022-09-07T07:42:24.155Z,99604.78
2022-09-07T07:47:38.487Z,99609.13
2022-09-07T07:55:43.623Z,99615.09
2022-09-07T07:58:11.119Z,99616.72
2022-09-07T08:00:53.784Z,99616.72
2022-09-07T08:03:23.455Z,99618.34
2022-09-07T08:05:51.027Z,99627.88
2022-09-07T08:08:18.815Z,99636.56
2022-09-07T08:10:47.193Z,99643.34
2022-09-07T08:13:15.877Z,99646.59
2022-09-07T08:15:46.133Z,99636.22
2022-09-07T08:18:13.814Z,99643.56
2022-09-07T08:20:41.719Z,99637.53
2022-09-07T08:23:08.882Z,99640.78
2022-09-07T08:25:36.203Z,99643.22
2022-09-07T08:28:04.126Z,99639.88
2022-09-07T08:30:31.332Z,99642.31
2022-09-07T08:32:58.397Z,99640.31
2022-09-07T08:35:25.373Z,99641.91
2022-09-07T08:37:52.271Z,99648.38
2022-09-07T08:40:20.510Z,99651.88
2022-09-07T08:43:12.092Z,99660.28
2022-09-07T08:45:48.575Z,99655.34
2022-09-07T08:48:29.127Z,99650.94
2022-09-07T08:51:12.958Z,99657.44
2022-09-07T08:53:46.564Z,99654.66
2022-09-07T08:56:31.540Z,99660.34
2022-09-07T08:59:11.302Z,99660.50
2022-09-07T09:01:42.830Z,99659.56
2022-09-07T09:04:23.155Z,99663.59
2022-09-07T09:07:13.635Z,99662.69
2022-09-07T09:10:16.160Z,99654.69
2022-09-07T09:13:04.426Z,99657.63
2022-09-07T09:16:17.205Z,99649.84
2022-09-07T09:19:06.232Z,99646.72
2022-09-07T09:21:35.539Z,99639.34
2022-09-07T09:24:19.321Z,99648.44
2022-09-07T09:26:53.007Z,99646.00
2022-09-07T09:29:22.311Z,99645.66
2022-09-07T09:31:53.560Z,99649.56
2022-09-07T09:34:25.480Z,99643.97
2022-09-07T09:36:56.671Z,99650.63
2022-09-07T09:39:38.163Z,99646.94
2022-09-07T09:42:24.562Z,99649.97
2022-09-07T09:44:52.026Z,99641.16
2022-09-07T09:47:32.965Z,99641.53
2022-09-07T09:50:06.914Z,99643.59
2022-09-07T09:52:47.683Z,99631.47
2022-09-07T09:55:35.492Z,99639.00
2022-09-07T10:01:35.294Z,99620.66
2022-09-07T10:04:24.770Z,99619.16
2022-09-07T10:06:55.889Z,99615.53
2022-09-07T10:09:29.745Z,99616.59
2022-09-07T10:12:08.542Z,99619.00
2022-09-07T10:14:47.360Z,99607.25
2022-09-07T10:17:36.801Z,99603.47
2022-09-07T10:20:15.856Z,99601.88
2022-09-07T10:22:52.557Z,99607.38
2022-09-07T10:25:34.738Z,99590.75
2022-09-07T10:28:12.867Z,99589.53
2022-09-07T10:31:24.375Z,99586.09
2022-09-07T10:34:38.443Z,99593.38
2022-09-07T10:37:09.386Z,99581.84
2022-09-07T10:40:16.372Z,99580.13
2022-09-07T10:49:19.805Z,99580.63
2022-09-07T10:52:03.636Z,99576.34
2022-09-07T10:55:15.976Z,99577.75
2022-09-07T10:58:08.330Z,99573.63
2022-09-07T11:01:13.347Z,99576.66
2022-09-07T11:03:57.441Z,99573.19
2022-09-07T11:06:48.931Z,99562.78
2022-09-07T11:09:50.759Z,99573.31
2022-09-07T11:12:31.811Z,99581.00
2022-09-07T11:15:12.175Z,99567.44
2022-09-07T11:17:55.157Z,99575.91
2022-09-07T11:20:37.756Z,99579.06
2022-09-07T11:23:22.580Z,99581.03
2022-09-07T11:26:11.256Z,99575.50
2022-09-07T11:29:28.735Z,99565.66
2022-09-07T11:32:21.686Z,99572.00
2022-09-07T11:35:03.726Z,99563.59
2022-09-07T11:37:41.191Z,99558.31
2022-09-07T11:40:23.605Z,99551.56
2022-09-07T11:43:15.743Z,99552.88
2022-09-07T11:46:04.756Z,99540.16
2022-09-07T11:48:52.355Z,99536.63
2022-09-07T11:51:26.635Z,99534.22
2022-09-07T11:54:02.310Z,99540.50
2022-09-07T11:56:45.641Z,99535.16
2022-09-07T11:59:52.183Z,99533.97
2022-09-07T12:03:07.591Z,99534.47
2022-09-07T12:06:04.891Z,99532.59
2022-09-07T12:08:48.666Z,99525.31
2022-09-07T12:11:58.565Z,99518.94
2022-09-07T12:15:10.167Z,99509.91
2022-09-07T12:18:06.414Z,99506.03
2022-09-07T12:20:54.618Z,99514.94
2022-09-07T12:23:32.103Z,99507.34
2022-09-07T12:26:34.432Z,99508.78
2022-09-07T12:29:01.231Z,99506.03
2022-09-07T12:31:59.353Z,99492.63
2022-09-07T12:34:33.639Z,99496.50
2022-09-07T12:37:26.657Z,99496.47
2022-09-07T12:40:30.562Z,99491.91
2022-09-07T12:43:15.611Z,99487.88
2022-09-07T12:45:42.526Z,99491.41
2022-09-07T12:48:44.909Z,99498.22
2022-09-07T12:55:28.518Z,99493.97
2022-09-07T12:58:40.867Z,99493.91
2022-09-07T13:01:33.336Z,99479.34
2022-09-07T13:04:42.339Z,99492.00
2022-09-07T13:07:46.471Z,99490.69
2022-09-07T13:10:36.687Z,99480.31
2022-09-07T13:16:14.611Z,99485.66
2022-09-07T13:18:47.464Z,99474.47
2022-09-07T13:21:15.481Z,99462.31
2022-09-07T13:27:25.878Z,99459.53
2022-09-07T13:30:01.927Z,99464.84
2022-09-07T13:35:24.898Z,99467.16
2022-09-07T13:38:03.744Z,99462.94
2022-09-07T13:40:39.218Z,99463.84
2022-09-07T13:43:14.985Z,99470.16
2022-09-07T13:45:56.081Z,99458.34
2022-09-07T13:48:47.596Z,99471.13
2022-09-07T13:51:48.720Z,99458.81
2022-09-07T13:54:46.290Z,99472.72
2022-09-07T13:57:32.223Z,99454.16
2022-09-07T13:59:59.573Z,99453.88
2022-09-07T14:02:35.435Z,99454.03
2022-09-07T14:05:03.062Z,99448.50
2022-09-07T14:07:33.619Z,99443.09
2022-09-07T14:10:21.926Z,99444.16
2022-09-07T14:12:53.343Z,99448.44
2022-09-07T14:15:37.069Z,99446.31
2022-09-07T14:18:22.893Z,99450.13
2022-09-07T14:20:52.795Z,99446.56
2022-09-07T14:23:31.404Z,99438.53
2022-09-07T14:26:25.263Z,99449.88
2022-09-07T14:28:55.869Z,99440.25
2022-09-07T14:31:25.881Z,99442.41
2022-09-07T14:33:59.350Z,99424.47
2022-09-07T14:36:45.682Z,99442.19
2022-09-07T14:39:17.424Z,99434.47
2022-09-07T14:41:46.025Z,99420.53
2022-09-07T14:44:38.714Z,99412.56
2022-09-07T14:47:21.967Z,99415.97
2022-09-07T14:49:52.902Z,99409.31
2022-09-07T14:52:43.344Z,99407.38
2022-09-07T14:55:32.444Z,99392.81
2022-09-07T14:58:24.325Z,99390.16
2022-09-07T15:04:21.774Z,99390.56
2022-09-07T15:07:04.801Z,99391.88
2022-09-07T15:09:38.395Z,99388.63
2022-09-07T15:12:38.245Z,99393.66
2022-09-07T15:15:33.991Z,99385.88
2022-09-07T15:18:27.747Z,99385.06
2022-09-07T15:20:57.216Z,99391.69
2022-09-07T15:23:25.414Z,99396.88
2022-09-07T15:25:54.108Z,99382.63
2022-09-07T15:34:20.415Z,99374.56
2022-09-07T15:36:53.437Z,99378.47
2022-09-07T15:39:29.886Z,99371.69
2022-09-07T15:42:00.422Z,99377.97
2022-09-07T15:44:45.832Z,99376.53
2022-09-07T15:50:00.937Z,99368.78
2022-09-07T15:52:31.600Z,99377.19
2022-09-07T15:54:59.843Z,99373.09
2022-09-07T16:00:18.096Z,99383.44
2022-09-07T16:03:05.835Z,99386.19
2022-09-07T16:05:33.948Z,99383.44
2022-09-07T16:10:53.890Z,99379.72
2022-09-07T16:13:23.795Z,99371.16
2022-09-07T16:15:51.018Z,99372.78
2022-09-07T16:18:18.892Z,99376.00
2022-09-07T16:20:47.337Z,99369.50
2022-09-07T16:23:16.754Z,99367.56
2022-09-07T16:25:57.190Z,99369.97
2022-09-07T16:28:24.662Z,99370.22
2022-09-07T16:30:51.715Z,99380.53
2022-09-07T16:33:18.694Z,99388.13
2022-09-07T16:35:59.486Z,99404.38
2022-09-07T16:41:26.554Z,99414.00
2022-09-07T16:43:54.743Z,99414.75
2022-09-07T16:46:25.411Z,99410.03
2022-09-07T16:48:53.455Z,99410.75
2022-09-07T16:51:22.668Z,99406.50
2022-09-07T16:53:52.900Z,99406.16
2022-09-07T16:56:21.746Z,99401.75
2022-09-07T16:58:52.044Z,99396.22
2022-09-07T17:01:22.664Z,99382.13
2022-09-07T17:03:50.351Z,99376.28
2022-09-07T17:06:20.174Z,99371.84
2022-09-07T17:08:47.587Z,99367.41
2022-09-07T17:11:28.989Z,99361.34
2022-09-07T17:13:57.935Z,99358.03
2022-09-07T17:16:31.943Z,99366.47
2022-09-07T17:21:53.595Z,99366.31
2022-09-07T17:24:21.100Z,99358.13
2022-09-07T17:26:48.447Z,99361.84
2022-09-07T17:29:15.362Z,99367.53
2022-09-07T17:34:30.483Z,99377.16
2022-09-07T17:36:57.841Z,99376.00
2022-09-07T17:39:24.840Z,99389.13
2022-09-07T17:41:52.670Z,99379.53
2022-09-07T17:44:21.565Z,99376.28
2022-09-07T17:46:48.803Z,99366.69
2022-09-07T17:49:16.686Z,99372.63
2022-09-07T17:51:44.670Z,99371.69
2022-09-07T17:54:15.518Z,99372.16
2022-09-07T17:56:43.381Z,99372.06
2022-09-07T18:01:58.193Z,99365.03
2022-09-07T18:04:25.185Z,99366.22
2022-09-07T18:06:54.072Z,99361.41
2022-09-07T18:09:21.685Z,99370.25
2022-09-07T18:11:49.895Z,99381.19
2022-09-07T18:14:18.644Z,99379.63
2022-09-07T18:16:48.825Z,99390.06
2022-09-07T18:19:16.939Z,99391.50
2022-09-07T18:21:45.285Z,99399.19
2022-09-07T18:24:23.955Z,99407.13
2022-09-07T18:26:53.709Z,99411.56
2022-09-07T18:29:33.993Z,99426.84
2022-09-07T18:32:08.029Z,99427.94
2022-09-07T18:34:37.927Z,99430.97
2022-09-07T18:37:05.956Z,99434.50
2022-09-07T18:39:35.091Z,99433.44
2022-09-07T18:42:02.293Z,99447.09
2022-09-07T18:47:23.137Z,99454.22
2022-09-07T18:49:51.483Z,99460.78
2022-09-07T18:55:08.498Z,99448.94
2022-09-07T18:57:36.509Z,99446.28
2022-09-07T19:00:07.745Z,99433.00
2022-09-07T19:02:35.767Z,99436.88
2022-09-07T19:07:50.178Z,99423.94
2022-09-07T19:10:17.709Z,99401.44
2022-09-07T19:12:46.212Z,99373.19
2022-09-07T19:15:13.991Z,99362.13
2022-09-07T19:17:40.984Z,99337.72
2022-09-07T19:20:09.040Z,99329.63
2022-09-07T19:22:35.979Z,99329.38
2022-09-07T19:25:03.502Z,99325.03
2022-09-07T19:27:32.897Z,99322.63
2022-09-07T19:29:59.903Z,99331.53
2022-09-07T19:32:27.273Z,99335.59
2022-09-07T19:34:55.332Z,99345.38
2022-09-07T19:37:27.277Z,99349.44
2022-09-07T19:39:57.422Z,99345.63
2022-09-07T19:42:25.447Z,99344.50
2022-09-07T19:44:54.029Z,99342.63
2022-09-07T19:47:23.140Z,99337.19
2022-09-07T19:49:50.069Z,99329.84
2022-09-07T19:52:17.000Z,99324.97
2022-09-07T19:54:43.947Z,99323.06
2022-09-07T19:57:11.012Z,99308.66
2022-09-07T19:59:37.918Z,99304.31
2022-09-07T20:02:06.062Z,99302.69
2022-09-07T20:04:33.083Z,99296.19
2022-09-07T20:07:00.074Z,99295.31
2022-09-07T20:09:27.107Z,99289.06
2022-09-07T20:11:54.132Z,99280.38
2022-09-07T20:14:21.077Z,99276.00
2022-09-07T20:16:48.101Z,99268.13
2022-09-07T20:19:15.278Z,99268.38
2022-09-07T20:21:42.871Z,99254.84
2022-09-07T20:24:12.331Z,99248.31
2022-09-07T20:26:39.385Z,99242.06
2022-09-07T20:31:54.299Z,99234.19
2022-09-07T20:34:21.395Z,99221.19
2022-09-07T20:36:52.526Z,99226.03
2022-09-07T20:39:20.821Z,99222.78
2022-09-07T20:41:48.287Z,99216.84
2022-09-07T20:44:17.955Z,99218.47
2022-09-07T20:46:47.187Z,99222.78
2022-09-07T20:49:15.385Z,99224.16
2022-09-07T20:51:46.397Z,99211.44
2022-09-07T20:54:13.728Z,99211.72
2022-09-07T20:56:40.982Z,99205.22
2022-09-07T20:59:08.412Z,99208.22
2022-09-07T21:01:35.602Z,99201.47
2022-09-07T21:04:03.912Z,99201.19
2022-09-07T21:06:31.943Z,99188.22
2022-09-07T21:09:00.079Z,99194.19
2022-09-07T21:11:31.280Z,99195.81
2022-09-07T21:14:07.486Z,99190.13
2022-09-07T21:16:36.058Z,99197.69
2022-09-07T21:19:07.045Z,99201.75
2022-09-07T21:21:38.976Z,99203.94
2022-09-07T21:24:14.387Z,99221.28
2022-09-07T21:26:41.439Z,99233.19
2022-09-07T21:29:14.963Z,99240.25
2022-09-07T21:31:41.994Z,99245.16
2022-09-07T21:34:09.903Z,99254.34
2022-09-07T21:36:37.014Z,99245.72
2022-09-07T21:39:04.321Z,99254.09
2022-09-07T21:41:31.264Z,99259.81
2022-09-07T21:44:01.697Z,99268.47
2022-09-07T21:46:31.467Z,99270.38
2022-09-07T21:48:59.408Z,99271.19
2022-09-07T21:51:27.543Z,99269.56
2022-09-07T21:53:57.484Z,99265.50
2022-09-07T21:56:25.412Z,99258.19
2022-09-07T21:59:00.714Z,99260.66
2022-09-07T22:01:29.509Z,99256.84
2022-09-07T22:04:04.876Z,99261.19
2022-09-07T22:06:33.039Z,99263.06
2022-09-07T22:09:01.575Z,99259.84
2022-09-07T22:11:30.138Z,99257.66
2022-09-07T22:14:01.892Z,99245.75
2022-09-07T22:16:30.061Z,99252.78
2022-09-07T22:18:57.470Z,99246.81
2022-09-07T22:21:27.603Z,99249.53
2022-09-07T22:24:01.419Z,99238.16
2022-09-07T22:26:33.144Z,99234.88
2022-09-07T22:29:00.607Z,99235.44
2022-09-07T22:31:31.643Z,99230.53
2022-09-07T22:34:02.021Z,99229.19
2022-09-07T22:36:32.916Z,99219.94
2022-09-07T22:39:04.068Z,99208.84
2022-09-07T22:41:34.468Z,99212.66
2022-09-07T22:44:01.751Z,99210.19
2022-09-07T22:46:31.086Z,99216.97
2022-09-07T22:48:59.149Z,99212.09
2022-09-07T22:51:27.452Z,99227.22
2022-09-07T22:53:57.175Z,99218.56
2022-09-07T22:56:31.105Z,99222.34
2022-09-07T22:59:05.652Z,99214.22
2022-09-07T23:01:33.302Z,99222.59
2022-09-07T23:04:01.329Z,99243.16
2022-09-07T23:06:34.516Z,99253.97
2022-09-07T23:09:06.751Z,99258.31
2022-09-07T23:11:33.901Z,99251.28
2022-09-07T23:14:04.945Z,99244.75
2022-09-07T23:16:31.948Z,99243.94
2022-09-07T23:19:00.440Z,99235.81
2022-09-07T23:21:28.452Z,99229.59
2022-09-07T23:23:59.621Z,99232.56
2022-09-07T23:26:30.133Z,99236.09
2022-09-07T23:29:01.115Z,99242.59
2022-09-07T23:31:30.122Z,99281.81
2022-09-07T23:33:57.700Z,99301.59
2022-09-07T23:36:25.404Z,99301.06
2022-09-07T23:38:56.181Z,99291.06
2022-09-07T23:41:24.879Z,99293.78
2022-09-07T23:43:52.903Z,99272.66
2022-09-07T23:46:20.684Z,99266.69
2022-09-07T23:48:48.672Z,99261.56
2022-09-07T23:51:21.295Z,99256.38
2022-09-07T23:53:50.787Z,99250.19
2022-09-07T23:56:17.909Z,99239.38
2022-09-07T23:58:44.989Z,99231.53
